createdAt,value
2022-08-04T00:00:44.391Z,20.24
2022-08-04T00:01:44.430Z,20.23
2022-08-04T00:02:44.685Z,20.20
2022-08-04T00:03:44.343Z,20.20
2022-08-04T00:04:44.360Z,20.20
2022-08-04T00:05:44.321Z,20.18
2022-08-04T00:06:44.311Z,20.17
2022-08-04T00:07:45.301Z,20.14
2022-08-04T00:08:44.285Z,20.16
2022-08-04T00:09:44.282Z,20.13
2022-08-04T00:10:44.269Z,20.13
2022-08-04T00:11:44.241Z,20.10
2022-08-04T00:12:44.233Z,20.08
2022-08-04T00:13:52.673Z,20.06
2022-08-04T00:14:45.213Z,20.06
2022-08-04T00:15:44.186Z,20.05
2022-08-04T00:16:44.184Z,20.03
2022-08-04T00:17:44.162Z,20.02
2022-08-04T00:18:44.153Z,20.03
2022-08-04T00:19:44.141Z,20.02
2022-08-04T00:20:44.122Z,20.03
2022-08-04T00:21:44.103Z,20.03
2022-08-04T00:22:44.104Z,20.02
2022-08-04T00:24:11.606Z,20.02
2022-08-04T00:24:45.086Z,19.99
2022-08-04T00:25:44.055Z,19.99
2022-08-04T00:26:44.042Z,19.99
2022-08-04T00:27:44.031Z,19.96
2022-08-04T00:28:44.023Z,19.94
2022-08-04T00:29:44.014Z,19.94
2022-08-04T00:30:43.991Z,19.91
2022-08-04T00:31:56.748Z,19.87
2022-08-04T00:32:44.982Z,19.84
2022-08-04T00:33:43.944Z,19.83
2022-08-04T00:34:43.953Z,19.83
2022-08-04T00:35:43.921Z,19.78
2022-08-04T00:36:43.916Z,19.80
2022-08-04T00:37:43.893Z,19.77
2022-08-04T00:38:43.899Z,19.78
2022-08-04T00:39:43.873Z,19.76
2022-08-04T00:40:43.862Z,19.74
2022-08-04T00:41:56.280Z,19.71
2022-08-04T00:42:58.480Z,19.69
2022-08-04T00:43:44.816Z,19.69
2022-08-04T00:44:43.814Z,19.65
2022-08-04T00:46:15.077Z,19.66
2022-08-04T00:46:44.773Z,19.66
2022-08-04T00:47:43.755Z,19.65
2022-08-04T00:48:43.752Z,19.63
2022-08-04T00:49:43.746Z,19.63
2022-08-04T00:50:43.720Z,19.62
2022-08-04T00:51:43.705Z,19.61
2022-08-04T00:52:43.693Z,19.59
2022-08-04T00:53:49.915Z,19.59
2022-08-04T00:54:44.683Z,19.55
2022-08-04T00:55:43.653Z,19.58
2022-08-04T00:56:43.641Z,19.54
2022-08-04T00:57:43.623Z,19.55
2022-08-04T00:58:43.638Z,19.51
2022-08-04T00:59:43.614Z,19.51
2022-08-04T01:00:43.591Z,19.50
2022-08-04T01:01:43.686Z,19.47
2022-08-04T01:02:43.562Z,19.47
2022-08-04T01:03:43.552Z,19.44
2022-08-04T01:04:43.546Z,19.46
2022-08-04T01:05:43.522Z,19.43
2022-08-04T01:06:43.504Z,19.43
2022-08-04T01:07:44.491Z,19.44
2022-08-04T01:08:43.481Z,19.41
2022-08-04T01:09:43.475Z,19.36
2022-08-04T01:10:43.473Z,19.32
2022-08-04T01:11:56.686Z,19.32
2022-08-04T01:12:44.434Z,19.32
2022-08-04T01:13:43.415Z,19.29
2022-08-04T01:14:43.417Z,19.29
2022-08-04T01:16:00.084Z,19.29
2022-08-04T01:16:44.374Z,19.28
2022-08-04T01:17:43.355Z,19.29
2022-08-04T01:18:43.354Z,19.26
2022-08-04T01:19:43.344Z,19.25
2022-08-04T01:20:43.324Z,19.26
2022-08-04T01:21:43.304Z,19.23
2022-08-04T01:22:43.323Z,19.25
2022-08-04T01:23:43.284Z,19.22
2022-08-04T01:24:43.284Z,19.21
2022-08-04T01:25:43.255Z,19.19
2022-08-04T01:26:53.521Z,19.19
2022-08-04T01:27:44.223Z,19.19
2022-08-04T01:28:43.213Z,19.19
2022-08-04T01:29:47.051Z,19.19
2022-08-04T01:30:43.192Z,19.18
2022-08-04T01:31:43.173Z,19.18
2022-08-04T01:32:43.173Z,19.14
2022-08-04T01:34:03.386Z,19.18
2022-08-04T01:34:44.143Z,19.14
2022-08-04T01:35:47.469Z,19.11
2022-08-04T01:36:44.106Z,19.14
2022-08-04T01:37:44.092Z,19.11
2022-08-04T01:38:43.085Z,19.13
2022-08-04T01:39:43.078Z,19.13
2022-08-04T01:40:43.072Z,19.11
2022-08-04T01:41:43.043Z,19.10
2022-08-04T01:42:44.042Z,19.11
2022-08-04T01:43:43.005Z,19.11
2022-08-04T01:44:43.015Z,19.11
2022-08-04T01:45:42.992Z,19.11
2022-08-04T01:46:42.974Z,19.10
2022-08-04T01:47:42.977Z,19.13
2022-08-04T01:48:42.951Z,19.11
2022-08-04T01:49:42.944Z,19.10
2022-08-04T01:50:42.923Z,19.08
2022-08-04T01:51:42.958Z,19.07
2022-08-04T01:52:45.542Z,19.08
2022-08-04T01:53:43.875Z,19.06
2022-08-04T01:54:42.894Z,19.07
2022-08-04T01:55:54.482Z,19.04
2022-08-04T01:56:43.845Z,19.02
2022-08-04T01:57:42.870Z,18.99
2022-08-04T01:58:42.821Z,18.98
2022-08-04T01:59:42.814Z,18.98
2022-08-04T02:00:42.810Z,18.91
2022-08-04T02:01:42.885Z,18.90
2022-08-04T02:02:42.843Z,18.88
2022-08-04T02:04:18.861Z,18.88
2022-08-04T02:04:43.754Z,18.84
2022-08-04T02:06:03.971Z,18.82
2022-08-04T02:06:43.711Z,18.76
2022-08-04T02:07:42.693Z,18.76
2022-08-04T02:08:42.684Z,18.75
2022-08-04T02:09:54.691Z,18.69
2022-08-04T02:10:43.672Z,18.70
2022-08-04T02:11:42.641Z,18.69
2022-08-04T02:12:42.633Z,18.67
2022-08-04T02:13:42.614Z,18.67
2022-08-04T02:14:42.627Z,18.65
2022-08-04T02:15:42.605Z,18.62
2022-08-04T02:16:42.584Z,18.60
2022-08-04T02:17:42.561Z,18.58
2022-08-04T02:18:42.557Z,18.60
2022-08-04T02:19:42.534Z,18.57
2022-08-04T02:20:42.534Z,18.55
2022-08-04T02:21:43.050Z,18.55
2022-08-04T02:22:42.494Z,18.52
2022-08-04T02:23:42.484Z,18.54
2022-08-04T02:24:42.474Z,18.51
2022-08-04T02:25:42.471Z,18.51
2022-08-04T02:26:42.442Z,18.50
2022-08-04T02:27:59.917Z,18.52
2022-08-04T02:28:43.414Z,18.50
2022-08-04T02:29:42.428Z,18.48
2022-08-04T02:30:42.404Z,18.47
2022-08-04T02:31:42.374Z,18.47
2022-08-04T02:32:44.197Z,18.48
2022-08-04T02:33:42.349Z,18.47
2022-08-04T02:34:42.333Z,18.47
2022-08-04T02:35:42.332Z,18.44
2022-08-04T02:36:42.306Z,18.42
2022-08-04T02:37:42.294Z,18.42
2022-08-04T02:38:42.292Z,18.44
2022-08-04T02:39:48.179Z,18.44
2022-08-04T02:40:43.274Z,18.44
2022-08-04T02:41:42.235Z,18.44
2022-08-04T02:42:42.224Z,18.41
2022-08-04T02:43:50.848Z,18.37
2022-08-04T02:44:43.225Z,18.37
2022-08-04T02:45:42.205Z,18.37
2022-08-04T02:46:42.174Z,18.36
2022-08-04T02:48:25.184Z,18.33
2022-08-04T02:48:43.143Z,18.32
2022-08-04T02:49:42.144Z,18.30
2022-08-04T02:50:42.143Z,18.26
2022-08-04T02:51:42.113Z,18.27
2022-08-04T02:52:42.093Z,18.26
2022-08-04T02:53:42.144Z,18.25
2022-08-04T02:54:42.065Z,18.23
2022-08-04T02:55:42.071Z,18.21
2022-08-04T02:56:43.042Z,18.21
2022-08-04T02:57:42.063Z,18.21
2022-08-04T02:58:42.013Z,18.18
2022-08-04T02:59:42.013Z,18.18
2022-08-04T03:00:42.023Z,18.20
2022-08-04T03:01:56.821Z,18.20
2022-08-04T03:02:42.963Z,18.17
2022-08-04T03:03:41.953Z,18.14
2022-08-04T03:04:41.934Z,18.14
2022-08-04T03:05:50.072Z,18.12
2022-08-04T03:06:42.903Z,18.12
2022-08-04T03:07:41.901Z,18.12
2022-08-04T03:08:41.874Z,18.11
2022-08-04T03:09:41.874Z,18.08
2022-08-04T03:10:41.863Z,18.05
2022-08-04T03:11:41.842Z,18.05
2022-08-04T03:12:41.823Z,18.08
2022-08-04T03:13:41.814Z,18.03
2022-08-04T03:14:41.804Z,18.07
2022-08-04T03:15:41.804Z,18.02
2022-08-04T03:16:41.773Z,18.00
2022-08-04T03:17:53.220Z,17.99
2022-08-04T03:18:42.754Z,17.96
2022-08-04T03:19:41.745Z,17.99
2022-08-04T03:20:41.735Z,17.97
2022-08-04T03:21:41.715Z,17.93
2022-08-04T03:22:59.790Z,17.93
2022-08-04T03:23:42.683Z,17.92
2022-08-04T03:24:41.664Z,17.93
2022-08-04T03:25:57.162Z,17.92
2022-08-04T03:26:42.636Z,17.92
2022-08-04T03:27:41.634Z,17.92
2022-08-04T03:28:41.613Z,17.90
2022-08-04T03:29:41.604Z,17.86
2022-08-04T03:30:41.594Z,17.84
2022-08-04T03:31:41.574Z,17.84
2022-08-04T03:32:41.554Z,17.87
2022-08-04T03:33:41.564Z,17.87
2022-08-04T03:34:41.543Z,17.92
2022-08-04T03:35:41.534Z,17.92
2022-08-04T03:36:41.506Z,17.95
2022-08-04T03:37:41.494Z,17.96
2022-08-04T03:38:41.475Z,17.97
2022-08-04T03:39:41.530Z,17.99
2022-08-04T03:40:41.472Z,18.05
2022-08-04T03:41:55.295Z,18.05
2022-08-04T03:42:42.423Z,18.05
2022-08-04T03:43:57.342Z,18.05
2022-08-04T03:44:42.402Z,18.03
2022-08-04T03:45:41.426Z,18.05
2022-08-04T03:46:41.374Z,18.00
2022-08-04T03:47:42.425Z,17.97
2022-08-04T03:48:41.345Z,17.99
2022-08-04T03:49:41.334Z,17.97
2022-08-04T03:50:41.735Z,17.93
2022-08-04T03:51:41.313Z,17.89
2022-08-04T03:52:41.292Z,17.89
2022-08-04T03:53:41.305Z,17.86
2022-08-04T03:54:41.263Z,17.86
2022-08-04T03:55:41.293Z,17.82
2022-08-04T03:56:41.254Z,17.82
2022-08-04T03:57:41.224Z,17.81
2022-08-04T03:58:41.211Z,17.82
2022-08-04T03:59:41.204Z,17.78
2022-08-04T04:00:42.203Z,17.78
2022-08-04T04:02:01.484Z,17.77
2022-08-04T04:02:42.196Z,17.75
2022-08-04T04:03:41.144Z,17.75
2022-08-04T04:04:41.134Z,17.74
2022-08-04T04:05:59.850Z,17.72
2022-08-04T04:06:42.103Z,17.72
2022-08-04T04:07:41.095Z,17.72
2022-08-04T04:08:41.074Z,17.71
2022-08-04T04:09:58.083Z,17.72
2022-08-04T04:10:42.064Z,17.72
2022-08-04T04:11:56.752Z,17.75
2022-08-04T04:12:42.024Z,17.74
2022-08-04T04:13:41.014Z,17.77
2022-08-04T04:14:40.995Z,17.78
2022-08-04T04:15:41.002Z,17.82
2022-08-04T04:16:40.964Z,17.87
2022-08-04T04:17:40.965Z,17.86
2022-08-04T04:18:40.943Z,17.87
2022-08-04T04:19:40.944Z,17.89
2022-08-04T04:20:40.934Z,17.90
2022-08-04T04:21:40.904Z,17.89
2022-08-04T04:22:40.896Z,17.90
2022-08-04T04:23:40.883Z,17.93
2022-08-04T04:24:40.872Z,17.90
2022-08-04T04:25:40.873Z,17.93
2022-08-04T04:26:40.834Z,17.93
2022-08-04T04:27:40.823Z,17.92
2022-08-04T04:28:44.712Z,17.93
2022-08-04T04:29:41.801Z,17.92
2022-08-04T04:30:40.803Z,17.95
2022-08-04T04:31:40.775Z,17.93
2022-08-04T04:32:40.753Z,17.95
2022-08-04T04:33:40.754Z,17.96
2022-08-04T04:34:45.549Z,17.97
2022-08-04T04:35:41.733Z,18.00
2022-08-04T04:36:40.722Z,17.99
2022-08-04T04:37:48.593Z,18.02
2022-08-04T04:38:41.683Z,18.02
2022-08-04T04:39:40.734Z,18.02
2022-08-04T04:40:40.672Z,18.02
2022-08-04T04:41:40.644Z,18.02
2022-08-04T04:42:40.624Z,18.07
2022-08-04T04:43:51.507Z,18.07
2022-08-04T04:44:41.594Z,18.10
2022-08-04T04:45:40.606Z,18.10
2022-08-04T04:46:40.583Z,18.10
2022-08-04T04:48:09.046Z,18.12
2022-08-04T04:48:41.545Z,18.15
2022-08-04T04:49:40.536Z,18.15
2022-08-04T04:50:40.543Z,18.20
2022-08-04T04:51:40.525Z,18.23
2022-08-04T04:52:40.495Z,18.27
2022-08-04T04:53:40.483Z,18.32
2022-08-04T04:54:40.474Z,18.35
2022-08-04T04:55:42.220Z,18.37
2022-08-04T04:56:40.445Z,18.39
2022-08-04T04:57:53.286Z,18.42
2022-08-04T04:58:41.412Z,18.45
2022-08-04T04:59:40.403Z,18.50
2022-08-04T05:00:40.405Z,18.52
2022-08-04T05:01:40.373Z,18.57
2022-08-04T05:02:40.370Z,18.69
2022-08-04T05:03:40.345Z,18.73
2022-08-04T05:04:40.334Z,18.81
2022-08-04T05:05:40.342Z,18.87
2022-08-04T05:06:40.304Z,18.85
2022-08-04T05:07:40.304Z,19.04
2022-08-04T05:08:42.790Z,19.18
2022-08-04T05:09:41.274Z,19.29
2022-08-04T05:10:40.274Z,19.39
2022-08-04T05:11:40.243Z,19.47
2022-08-04T05:14:32.757Z,19.61
2022-08-04T05:14:35.504Z,19.68
2022-08-04T05:14:42.012Z,19.71
2022-08-04T05:15:40.203Z,19.96
2022-08-04T05:16:40.173Z,20.08
2022-08-04T05:17:40.173Z,20.18
2022-08-04T05:18:40.153Z,20.28
2022-08-04T05:19:40.144Z,20.36
2022-08-04T05:20:40.142Z,20.35
2022-08-04T05:21:40.117Z,20.59
2022-08-04T05:22:40.094Z,20.61
2022-08-04T05:23:40.092Z,20.87
2022-08-04T05:24:40.081Z,20.85
2022-08-04T05:25:40.073Z,21.06
2022-08-04T05:26:40.043Z,21.07
2022-08-04T05:27:40.391Z,21.27
2022-08-04T05:28:40.012Z,21.32
2022-08-04T05:29:41.089Z,21.42
2022-08-04T05:30:39.995Z,21.53
2022-08-04T05:31:39.974Z,21.58
2022-08-04T05:32:39.966Z,21.62
2022-08-04T05:33:39.954Z,21.69
2022-08-04T05:34:39.934Z,21.74
2022-08-04T05:36:16.253Z,21.80
2022-08-04T05:36:41.753Z,21.91
2022-08-04T05:37:39.895Z,22.02
2022-08-04T05:38:39.885Z,22.07
2022-08-04T05:39:39.948Z,22.15
2022-08-04T05:40:39.864Z,22.22
2022-08-04T05:41:46.343Z,22.31
2022-08-04T05:42:40.825Z,22.37
2022-08-04T05:43:39.822Z,22.45
2022-08-04T05:44:39.794Z,22.57
2022-08-04T05:45:39.802Z,22.68
2022-08-04T05:46:39.774Z,22.76
2022-08-04T05:47:39.765Z,22.85
2022-08-04T05:48:39.745Z,22.92
2022-08-04T05:49:39.745Z,22.98
2022-08-04T05:50:39.745Z,23.05
2022-08-04T05:51:39.715Z,23.04
2022-08-04T05:52:39.695Z,23.01
2022-08-04T05:53:39.685Z,23.09
2022-08-04T05:54:39.666Z,23.07
2022-08-04T05:55:48.770Z,22.98
2022-08-04T05:56:40.645Z,22.94
2022-08-04T05:57:39.626Z,22.98
2022-08-04T05:58:39.615Z,23.10
2022-08-04T05:59:39.605Z,23.19
2022-08-04T06:00:41.556Z,23.31
2022-08-04T06:01:55.859Z,23.38
2022-08-04T06:02:40.556Z,23.51
2022-08-04T06:03:39.560Z,23.63
2022-08-04T06:04:39.543Z,23.72
2022-08-04T06:05:39.546Z,23.83
2022-08-04T06:06:39.517Z,23.93
2022-08-04T06:08:07.718Z,24.02
2022-08-04T06:08:40.483Z,24.05
2022-08-04T06:09:39.476Z,24.15
2022-08-04T06:10:39.469Z,24.24
2022-08-04T06:12:03.049Z,24.21
2022-08-04T06:12:40.427Z,24.28
2022-08-04T06:13:48.650Z,24.31
2022-08-04T06:14:40.400Z,24.32
2022-08-04T06:15:39.417Z,24.32
2022-08-04T06:16:40.376Z,24.25
2022-08-04T06:19:56.569Z,24.06
2022-08-04T06:19:59.846Z,24.00
2022-08-04T06:20:02.829Z,24.00
2022-08-04T06:20:40.339Z,23.95
2022-08-04T06:21:40.316Z,23.98
2022-08-04T06:22:39.295Z,23.95
2022-08-04T06:23:52.960Z,23.95
2022-08-04T06:24:40.267Z,23.95
2022-08-04T06:25:39.265Z,24.03
2022-08-04T06:26:39.257Z,24.08
2022-08-04T06:27:39.227Z,24.05
2022-08-04T06:28:39.210Z,24.09
2022-08-04T06:29:39.218Z,24.13
2022-08-04T06:30:39.182Z,24.18
2022-08-04T06:32:27.054Z,24.27
2022-08-04T06:32:41.989Z,24.34
2022-08-04T06:33:54.464Z,24.34
2022-08-04T06:34:40.151Z,24.39
2022-08-04T06:35:39.129Z,24.50
2022-08-04T06:36:39.178Z,24.69
2022-08-04T06:37:43.433Z,24.96
2022-08-04T06:38:39.090Z,25.13
2022-08-04T06:39:39.154Z,25.14
2022-08-04T06:40:39.067Z,25.24
2022-08-04T06:41:55.318Z,25.43
2022-08-04T06:42:40.059Z,25.62
2022-08-04T06:43:43.125Z,25.82
2022-08-04T06:44:40.011Z,25.99
2022-08-04T06:45:38.993Z,26.20
2022-08-04T06:46:38.992Z,26.39
2022-08-04T06:47:38.979Z,26.54
2022-08-04T06:48:38.968Z,26.75
2022-08-04T06:49:44.193Z,26.87
2022-08-04T06:51:26.163Z,26.97
2022-08-04T06:51:48.944Z,27.10
2022-08-04T06:52:39.966Z,27.21
2022-08-04T06:53:38.890Z,27.32
2022-08-04T06:54:38.883Z,27.46
2022-08-04T06:55:38.861Z,27.51
2022-08-04T06:56:38.861Z,27.69
2022-08-04T06:57:38.831Z,27.85
2022-08-04T06:58:38.821Z,27.93
2022-08-04T06:59:38.801Z,27.97
2022-08-04T07:00:38.801Z,28.09
2022-08-04T07:01:38.843Z,28.22
2022-08-04T07:02:38.782Z,28.24
2022-08-04T07:03:38.751Z,28.21
2022-08-04T07:04:38.754Z,28.19
2022-08-04T07:05:38.722Z,28.11
2022-08-04T07:06:38.750Z,27.87
2022-08-04T07:07:56.827Z,27.79
2022-08-04T07:08:39.682Z,27.77
2022-08-04T07:09:38.672Z,27.72
2022-08-04T07:10:38.664Z,27.66
2022-08-04T07:11:44.139Z,27.69
2022-08-04T07:12:39.632Z,27.62
2022-08-04T07:13:43.262Z,27.67
2022-08-04T07:14:39.604Z,27.93
2022-08-04T07:15:38.621Z,28.15
2022-08-04T07:16:38.596Z,28.31
2022-08-04T07:17:38.574Z,28.51
2022-08-04T07:18:38.563Z,28.61
2022-08-04T07:19:38.534Z,28.43
2022-08-04T07:20:38.714Z,28.40
2022-08-04T07:21:38.540Z,28.36
2022-08-04T07:22:38.504Z,28.41
2022-08-04T07:23:38.486Z,28.59
2022-08-04T07:24:38.483Z,28.81
2022-08-04T07:26:11.025Z,29.04
2022-08-04T07:26:39.544Z,29.26
2022-08-04T07:27:48.090Z,29.43
2022-08-04T07:28:39.425Z,29.46
2022-08-04T07:29:38.405Z,29.26
2022-08-04T07:30:38.398Z,29.27
2022-08-04T07:31:38.404Z,29.45
2022-08-04T07:32:38.403Z,29.61
2022-08-04T07:33:38.355Z,29.83
2022-08-04T07:34:38.349Z,30.05
2022-08-04T07:36:05.986Z,30.20
2022-08-04T07:36:50.485Z,30.37
2022-08-04T07:37:40.105Z,30.16
2022-08-04T07:38:51.142Z,30.17
2022-08-04T07:39:48.240Z,30.29
2022-08-04T07:40:39.279Z,30.45
2022-08-04T07:41:38.402Z,30.53
2022-08-04T07:42:38.246Z,30.57
2022-08-04T07:43:38.226Z,30.62
2022-08-04T07:44:38.218Z,30.51
2022-08-04T07:45:38.197Z,30.53
2022-08-04T07:46:38.212Z,30.62
2022-08-04T07:47:38.177Z,30.72
2022-08-04T07:48:38.166Z,30.70
2022-08-04T07:49:56.266Z,30.76
2022-08-04T07:50:39.168Z,30.84
2022-08-04T07:51:38.159Z,30.99
2022-08-04T07:52:39.937Z,31.14
2022-08-04T07:53:55.372Z,31.28
2022-08-04T07:54:39.103Z,31.41
2022-08-04T07:55:38.072Z,31.54
2022-08-04T07:56:38.082Z,31.70
2022-08-04T07:57:41.270Z,31.78
2022-08-04T07:58:38.040Z,31.50
2022-08-04T07:59:38.038Z,31.53
2022-08-04T08:00:38.011Z,31.65
2022-08-04T08:01:38.009Z,31.81
2022-08-04T08:02:38.169Z,31.95
2022-08-04T08:03:38.053Z,31.99
2022-08-04T08:04:37.968Z,32.01
2022-08-04T08:06:17.703Z,32.10
2022-08-04T08:06:43.164Z,32.22
2022-08-04T08:07:38.031Z,32.33
2022-08-04T08:08:38.922Z,32.40
2022-08-04T08:09:37.901Z,32.50
2022-08-04T08:10:37.891Z,32.62
2022-08-04T08:12:36.517Z,32.69
2022-08-04T08:12:51.411Z,32.79
2022-08-04T08:13:38.853Z,32.88
2022-08-04T08:14:37.845Z,32.94
2022-08-04T08:15:37.815Z,33.01
2022-08-04T08:16:37.832Z,33.03
2022-08-04T08:17:59.429Z,32.92
2022-08-04T08:18:38.794Z,33.01
2022-08-04T08:19:37.771Z,33.00
2022-08-04T08:20:38.661Z,32.97
2022-08-04T08:21:59.696Z,33.11
2022-08-04T08:22:38.863Z,33.26
2022-08-04T08:23:37.717Z,33.45
2022-08-04T08:24:37.713Z,33.56
2022-08-04T08:25:37.695Z,33.72
2022-08-04T08:26:37.695Z,33.84
2022-08-04T08:27:37.664Z,33.88
2022-08-04T08:28:37.663Z,33.95
2022-08-04T08:29:37.644Z,33.95
2022-08-04T08:30:37.635Z,33.72
2022-08-04T08:31:58.281Z,33.51
2022-08-04T08:32:38.606Z,33.39
2022-08-04T08:33:37.595Z,33.32
2022-08-04T08:34:37.585Z,33.38
2022-08-04T08:35:39.661Z,33.34
2022-08-04T08:36:38.582Z,33.37
2022-08-04T08:37:40.333Z,33.56
2022-08-04T08:38:37.526Z,33.76
2022-08-04T08:39:37.593Z,33.95
2022-08-04T08:40:40.564Z,34.03
2022-08-04T08:41:37.496Z,34.10
2022-08-04T08:42:37.570Z,33.95
2022-08-04T08:44:04.351Z,33.82
2022-08-04T08:44:38.458Z,33.73
2022-08-04T08:45:37.445Z,33.93
2022-08-04T08:46:48.875Z,34.09
2022-08-04T08:47:58.505Z,33.95
2022-08-04T08:48:38.398Z,33.82
2022-08-04T08:50:03.031Z,33.98
2022-08-04T08:50:38.374Z,34.17
2022-08-04T08:51:37.369Z,34.13
2022-08-04T08:52:57.311Z,34.16
2022-08-04T08:53:38.328Z,34.17
2022-08-04T08:54:37.330Z,34.37
2022-08-04T08:55:37.319Z,34.58
2022-08-04T08:56:37.329Z,34.59
2022-08-04T08:57:40.341Z,34.62
2022-08-04T08:58:38.280Z,34.75
2022-08-04T08:59:37.270Z,34.96
2022-08-04T09:00:37.261Z,35.16
2022-08-04T09:01:37.334Z,35.26
2022-08-04T09:02:37.238Z,35.22
2022-08-04T09:03:37.239Z,34.99
2022-08-04T09:04:37.203Z,34.96
2022-08-04T09:05:37.194Z,35.11
2022-08-04T09:06:37.220Z,35.31
2022-08-04T09:07:37.239Z,35.48
2022-08-04T09:08:37.161Z,35.52
2022-08-04T09:09:37.191Z,35.59
2022-08-04T09:10:37.140Z,35.71
2022-08-04T09:11:37.133Z,35.81
2022-08-04T09:12:37.111Z,35.89
2022-08-04T09:13:37.097Z,35.87
2022-08-04T09:14:37.082Z,35.97
2022-08-04T09:15:37.063Z,36.07
2022-08-04T09:16:37.171Z,36.08
2022-08-04T09:17:37.033Z,36.15
2022-08-04T09:18:37.104Z,36.12
2022-08-04T09:19:39.065Z,35.97
2022-08-04T09:20:37.015Z,35.89
2022-08-04T09:21:37.007Z,35.78
2022-08-04T09:22:36.991Z,35.62
2022-08-04T09:23:36.967Z,35.60
2022-08-04T09:24:37.278Z,35.70
2022-08-04T09:25:37.042Z,35.90
2022-08-04T09:26:36.952Z,36.17
2022-08-04T09:27:36.994Z,36.39
2022-08-04T09:28:53.504Z,36.47
2022-08-04T09:29:37.905Z,36.50
2022-08-04T09:30:36.885Z,36.59
2022-08-04T09:31:52.974Z,36.66
2022-08-04T09:32:37.866Z,36.80
2022-08-04T09:33:44.454Z,36.76
2022-08-04T09:34:37.839Z,36.31
2022-08-04T09:35:36.860Z,36.16
2022-08-04T09:36:36.835Z,36.00
2022-08-04T09:37:45.570Z,36.12
2022-08-04T09:38:37.796Z,36.20
2022-08-04T09:39:36.852Z,36.34
2022-08-04T09:40:53.232Z,36.25
2022-08-04T09:41:48.525Z,35.93
2022-08-04T09:42:37.745Z,35.89
2022-08-04T09:44:42.342Z,36.12
2022-08-04T09:44:50.725Z,36.35
2022-08-04T09:45:42.368Z,36.53
2022-08-04T09:46:37.716Z,36.64
2022-08-04T09:47:39.570Z,36.81
2022-08-04T09:48:36.674Z,37.00
2022-08-04T09:49:36.679Z,37.13
2022-08-04T09:50:36.656Z,37.15
2022-08-04T09:51:59.016Z,37.18
2022-08-04T09:52:37.650Z,37.22
2022-08-04T09:53:36.610Z,36.99
2022-08-04T09:54:36.600Z,36.88
2022-08-04T09:55:36.591Z,37.06
2022-08-04T09:56:37.616Z,37.13
2022-08-04T09:57:36.561Z,37.27
2022-08-04T09:58:36.551Z,37.25
2022-08-04T09:59:36.531Z,37.27
2022-08-04T10:00:40.692Z,37.43
2022-08-04T10:01:36.592Z,37.34
2022-08-04T10:02:36.612Z,36.85
2022-08-04T10:03:36.660Z,36.46
2022-08-04T10:04:36.487Z,36.17
2022-08-04T10:05:36.452Z,36.27
2022-08-04T10:06:36.490Z,36.17
2022-08-04T10:07:36.443Z,35.84
2022-08-04T10:08:36.435Z,35.85
2022-08-04T10:09:36.427Z,36.08
2022-08-04T10:10:36.442Z,36.23
2022-08-04T10:11:36.393Z,36.34
2022-08-04T10:12:37.403Z,36.54
2022-08-04T10:13:36.381Z,36.75
2022-08-04T10:14:36.354Z,36.81
2022-08-04T10:15:36.354Z,36.90
2022-08-04T10:16:36.344Z,36.99
2022-08-04T10:17:36.334Z,36.94
2022-08-04T10:18:36.312Z,36.88
2022-08-04T10:19:36.307Z,36.72
2022-08-04T10:20:45.764Z,36.57
2022-08-04T10:21:37.266Z,36.51
2022-08-04T10:22:49.986Z,36.41
2022-08-04T10:23:55.097Z,36.37
2022-08-04T10:24:37.235Z,36.25
2022-08-04T10:26:03.262Z,36.31
2022-08-04T10:26:37.220Z,36.39
2022-08-04T10:27:36.256Z,36.64
2022-08-04T10:28:36.379Z,36.90
2022-08-04T10:29:36.222Z,37.05
2022-08-04T10:30:36.177Z,37.05
2022-08-04T10:31:36.203Z,36.66
2022-08-04T10:32:39.973Z,36.85
2022-08-04T10:33:37.127Z,37.10
2022-08-04T10:34:36.127Z,37.41
2022-08-04T10:35:36.097Z,37.64
2022-08-04T10:36:36.095Z,37.66
2022-08-04T10:37:59.026Z,37.72
2022-08-04T10:38:37.068Z,37.82
2022-08-04T10:39:43.354Z,37.47
2022-08-04T10:40:37.072Z,37.15
2022-08-04T10:41:36.059Z,36.60
2022-08-04T10:42:36.031Z,36.37
2022-08-04T10:43:36.099Z,36.20
2022-08-04T10:44:41.921Z,35.63
2022-08-04T10:45:36.990Z,35.48
2022-08-04T10:46:35.998Z,35.60
2022-08-04T10:47:35.965Z,35.90
2022-08-04T10:48:36.003Z,36.37
2022-08-04T10:49:35.940Z,36.59
2022-08-04T10:50:35.920Z,36.88
2022-08-04T10:51:57.699Z,37.17
2022-08-04T10:52:36.912Z,37.31
2022-08-04T10:53:35.898Z,37.44
2022-08-04T10:54:35.912Z,37.78
2022-08-04T10:56:07.110Z,37.85
2022-08-04T10:56:36.855Z,38.06
2022-08-04T10:57:35.841Z,38.22
2022-08-04T10:58:48.549Z,38.38
2022-08-04T10:59:36.813Z,38.53
2022-08-04T11:00:35.810Z,38.59
2022-08-04T11:02:02.062Z,38.04
2022-08-04T11:02:36.837Z,37.97
2022-08-04T11:03:35.763Z,37.85
2022-08-04T11:04:35.771Z,37.78
2022-08-04T11:05:44.169Z,37.66
2022-08-04T11:06:36.727Z,37.63
2022-08-04T11:07:35.727Z,37.85
2022-08-04T11:08:35.712Z,38.07
2022-08-04T11:09:35.695Z,38.26
2022-08-04T11:10:35.681Z,38.38
2022-08-04T11:12:01.622Z,38.46
2022-08-04T11:12:36.662Z,38.01
2022-08-04T11:13:35.635Z,37.37
2022-08-04T11:14:35.638Z,37.36
2022-08-04T11:15:35.616Z,37.55
2022-08-04T11:16:35.597Z,37.63
2022-08-04T11:17:35.607Z,37.50
2022-08-04T11:18:35.572Z,37.29
2022-08-04T11:19:44.891Z,37.47
2022-08-04T11:20:36.864Z,37.69
2022-08-04T11:21:35.623Z,37.89
2022-08-04T11:22:35.546Z,38.15
2022-08-04T11:23:35.526Z,38.35
2022-08-04T11:24:35.507Z,37.98
2022-08-04T11:25:35.496Z,37.93
2022-08-04T11:26:35.477Z,38.07
2022-08-04T11:27:35.477Z,38.04
2022-08-04T11:28:35.451Z,37.94
2022-08-04T11:29:35.438Z,37.60
2022-08-04T11:30:35.420Z,37.28
2022-08-04T11:31:35.448Z,37.21
2022-08-04T11:32:35.409Z,37.28
2022-08-04T11:33:35.393Z,37.31
2022-08-04T11:34:35.378Z,37.37
2022-08-04T11:35:35.380Z,37.28
2022-08-04T11:36:35.361Z,36.99
2022-08-04T11:37:35.388Z,36.87
2022-08-04T11:38:35.331Z,36.69
2022-08-04T11:39:35.443Z,36.85
2022-08-04T11:40:35.319Z,37.15
2022-08-04T11:41:35.318Z,37.20
2022-08-04T11:42:35.291Z,37.34
2022-08-04T11:44:02.837Z,37.51
2022-08-04T11:44:36.261Z,37.76
2022-08-04T11:45:35.251Z,37.82
2022-08-04T11:46:35.241Z,37.62
2022-08-04T11:47:35.303Z,37.47
2022-08-04T11:48:35.292Z,37.37
2022-08-04T11:49:56.734Z,37.47
2022-08-04T11:50:36.190Z,37.51
2022-08-04T11:51:35.217Z,37.60
2022-08-04T11:52:35.211Z,37.97
2022-08-04T11:53:36.807Z,37.91
2022-08-04T11:54:35.182Z,38.03
2022-08-04T11:56:07.656Z,37.79
2022-08-04T11:56:37.849Z,37.89
2022-08-04T11:57:35.727Z,38.09
2022-08-04T11:58:35.094Z,38.37
2022-08-04T11:59:35.437Z,38.42
2022-08-04T12:00:35.064Z,38.25
2022-08-04T12:01:35.077Z,38.32
2022-08-04T12:02:35.177Z,38.30
2022-08-04T12:03:37.566Z,38.26
2022-08-04T12:04:35.030Z,38.32
2022-08-04T12:05:36.737Z,38.13
2022-08-04T12:06:34.996Z,37.94
2022-08-04T12:07:39.009Z,37.39
2022-08-04T12:08:35.976Z,37.24
2022-08-04T12:09:34.956Z,37.28
2022-08-04T12:10:41.080Z,37.37
2022-08-04T12:11:35.939Z,37.40
2022-08-04T12:12:34.948Z,37.37
2022-08-04T12:13:34.913Z,37.17
2022-08-04T12:14:34.897Z,37.07
2022-08-04T12:15:34.899Z,37.32
2022-08-04T12:16:34.871Z,37.57
2022-08-04T12:17:52.327Z,37.37
2022-08-04T12:18:35.850Z,37.36
2022-08-04T12:19:58.630Z,37.50
2022-08-04T12:20:40.569Z,37.69
2022-08-04T12:21:35.842Z,37.88
2022-08-04T12:22:34.801Z,38.03
2022-08-04T12:23:34.790Z,38.06
2022-08-04T12:24:34.781Z,37.72
2022-08-04T12:25:34.782Z,37.78
2022-08-04T12:26:34.741Z,37.86
2022-08-04T12:27:34.762Z,37.97
2022-08-04T12:28:59.570Z,38.15
2022-08-04T12:29:35.747Z,38.03
2022-08-04T12:31:00.426Z,37.62
2022-08-04T12:31:35.700Z,37.29
2022-08-04T12:32:34.704Z,37.07
2022-08-04T12:34:03.353Z,36.94
2022-08-04T12:34:35.653Z,37.12
2022-08-04T12:35:34.640Z,37.25
2022-08-04T12:36:34.641Z,37.10
2022-08-04T12:37:34.633Z,37.18
2022-08-04T12:38:34.622Z,37.05
2022-08-04T12:39:34.652Z,37.13
2022-08-04T12:40:34.617Z,37.47
2022-08-04T12:41:36.019Z,37.96
2022-08-04T12:42:34.557Z,38.44
2022-08-04T12:43:34.534Z,38.83
2022-08-04T12:44:37.301Z,38.87
2022-08-04T12:45:34.517Z,38.65
2022-08-04T12:46:34.498Z,38.71
2022-08-04T12:47:34.524Z,38.71
2022-08-04T12:48:34.483Z,38.34
2022-08-04T12:49:34.501Z,38.06
2022-08-04T12:50:34.473Z,37.81
2022-08-04T12:52:07.041Z,37.74
2022-08-04T12:53:35.424Z,37.93